Wednesday, October 18, 2017, 3:53 PM MDT
Back to Local

KPHP, Philip Airport

Location: Philip, SD, United States Lat: 44.05
Local Time: 3:53 PM MDT (21:53 GMT) Lon: -101.6
Time Zone: US/Mountain Elev: 2207 ft

Show me the last for .
Show Decoded

2017-10-18 14:55 METAR KPHP 182055Z AUTO 24003KT 10SM CLR 18/M04 A3004 RMK AO2 SLP167 T01831044
                 55015 =
2017-10-18 13:55 METAR KPHP 181955Z AUTO 01006KT 10SM CLR 18/M04 A3004 RMK AO2 SLP167 T01831044 =
2017-10-18 12:55 METAR KPHP 181855Z AUTO 10SM CLR 18/M04 A3007 RMK AO2 SLP176 T01831039 =
2017-10-18 11:55 METAR KPHP 181755Z AUTO 34009KT 10SM CLR 17/M04 A3009 RMK AO2 SLP187 T01671044
                 10172 20067 51021 =
2017-10-18 10:55 METAR KPHP 181655Z AUTO 34010KT 10SM CLR 17/M03 A3009 RMK AO2 SLP184 T01671028 =
2017-10-18 09:55 METAR KPHP 181555Z AUTO 33013KT 10SM CLR 15/M01 A3006 RMK AO2 SLP175 T01501011 =
2017-10-18 08:55 METAR KPHP 181455Z AUTO 34012KT 10SM CLR 14/00 A3002 RMK AO2 SLP160 T01390000
                 53057 =
2017-10-18 07:55 METAR KPHP 181355Z AUTO 34009KT 10SM CLR 13/M01 A2996 RMK AO2 SLP139 T01281006 =
2017-10-18 06:55 METAR KPHP 181255Z AUTO 34011KT 10SM CLR 13/M01 A2989 RMK AO2 SLP114 T01281011 =
2017-10-18 05:55 METAR KPHP 181155Z AUTO 27005KT 10SM CLR 08/M01 A2984 RMK AO2 SLP099 T00831006
                 10122 20072 53037 =
2017-10-18 04:55 METAR KPHP 181055Z AUTO 28007KT 10SM CLR 08/M01 A2980 RMK AO2 SLP080 T00831006 =
2017-10-18 03:55 METAR KPHP 180955Z AUTO 28009KT 10SM CLR 10/M01 A2976 RMK AO2 SLP064 T01001006 =
2017-10-18 02:55 METAR KPHP 180855Z AUTO 27009KT 10SM CLR 10/M01 A2972 RMK AO2 SLP052 T01001011
                 55007 =
2017-10-18 01:55 METAR KPHP 180755Z AUTO 29009KT 10SM CLR 09/M01 A2971 RMK AO2 SLP050 T00941006 =
2017-10-18 00:55 METAR KPHP 180655Z AUTO 28006KT 10SM CLR 09/00 A2972 RMK AO2 SLP052 T00890000
                 402670028 =
2017-10-17 23:55 METAR KPHP 180555Z AUTO 28008KT 10SM CLR 08/01 A2975 RMK AO2 SLP064 T00780006
                 10194 20072 58011 =
2017-10-17 22:55 METAR KPHP 180455Z AUTO 29006KT 10SM CLR 09/01 A2976 RMK AO2 SLP071 T00940006 =
2017-10-17 21:55 METAR KPHP 180355Z AUTO 29005KT 10SM CLR 11/00 A2977 RMK AO2 SLP076 T01110000 =
2017-10-17 20:55 METAR KPHP 180255Z AUTO VRB04KT 10SM CLR 15/M01 A2978 RMK AO2 SLP080 T01501011
                 58014 =
2017-10-17 19:55 METAR KPHP 180155Z AUTO 00000KT 10SM CLR 14/M01 A2980 RMK AO2 SLP090 T01441006 =
2017-10-17 18:55 METAR KPHP 180055Z AUTO 00000KT 10SM CLR 15/01 A2982 RMK AO2 SLP097 T01500011 =
2017-10-17 17:55 METAR KPHP 172355Z AUTO 18005KT 10SM CLR 19/01 A2983 RMK AO2 SLP095 T01940011
                 10267 20194 56015 =
2017-10-17 16:55 METAR KPHP 172255Z AUTO 22007KT 10SM CLR 24/M02 A2984 RMK AO2 SLP096 T02441017 =
2017-10-17 15:55 METAR KPHP 172155Z AUTO 19010KT 10SM CLR 26/M01 A2984 RMK AO2 SLP097 T02611006 =

Support USWX by starting your Amazon purchase here.